Scholes International At Galveston Airport
KGLS : now visible

Airfield :











YOU CAN JOIN US ON...

 
LOGIN :

Register | Disclaimer

   EN    FR    IT 

 









Legend :    VFR   Marginal VFR   IFR   Intensive IFR   Very Intensive IFR
Visi :
Ceiling :
>= 8 km
>= 3000ft
5 to 8 km
1000 to 3000 ft
1500m to 5 km
500 to 1000 ft
800 to 1500m
200 to 500 ft
< 800m
< 200 ft
Symbols :   Thunderstorms  Fog  Heavy snow  Heavy precipitations  Wind > 20 kt






- Airport Elevation : 6 ft
- IATA code : GLS


KGLS - Scholes International At Galveston

CURRENT METAR :
  • 280752Z AUTO 01011KT 9SM OVC004 22/21 A2981 RMK AO2 RAB0654E44 SLP095 P0005 T02220206 $

EXPIRED METARs :
  • 280750Z AUTO 01011KT 9SM OVC004 22/21 A2981 RMK AO2 RAB0654E44 P0005 $
  • 280652Z AUTO 01009KT 7SM OVC005 22/20 A2983 RMK AO2 RAE0555B12E42 SLP102 P0000 T02220200 $
  • 280552Z AUTO 36011KT 8SM -RA OVC005 22/20 A2985 RMK AO2 SLP108 P0010 60015 T02170200 10233 20211 402500211 58011

TAF KGLS
Valid from the 28 at 06:00 until the 29 at 06:00 UTC


280530Z 2806/2906 01013KT 6SM -RA BR VCSH OVC005
FM281200 01011KT 4SM -SHRA OVC006
FM281500 33015KT P6SM VCSH OVC007
FM282300 31019G29KT P6SM SCT024
FM290300 31020G30KT P6SM SKC
KZHU FIR / North America



MET'MAP, your aeronautical weather chart ! - Copyright ORBIFLY December 2007 - Disclaimer

ORBIFLY MET'MAP TEAM :

Programming & Development : Alexandra Zaïnal
Concept & original design : Baudouin d'Aumeries
Assistance for programming : Marc-Olivier Méhu
Technical & hardware support : Manuel Goepfert

Contact : metmap@orbifly.com




SOURCES & CREDITS :

   NOAA       Earth
Advisory